createdAt,value
2017-09-28T00:01:51.124Z,78.30
2017-09-28T00:04:18.296Z,78.20
2017-09-28T00:06:44.482Z,78.30
2017-09-28T00:09:11.814Z,78.20
2017-09-28T00:11:37.996Z,78.30
2017-09-28T00:14:04.939Z,78.60
2017-09-28T00:16:31.867Z,79.50
2017-09-28T00:18:58.054Z,78.40
2017-09-28T00:23:52.428Z,77.60
2017-09-28T00:26:19.981Z,78.00
2017-09-28T00:28:46.917Z,78.20
2017-09-28T00:31:13.514Z,77.40
2017-09-28T00:33:39.726Z,78.40
2017-09-28T00:36:05.934Z,78.30
2017-09-28T00:38:32.893Z,78.90
2017-09-28T00:40:59.109Z,78.90
2017-09-28T00:43:26.043Z,78.90
2017-09-28T00:45:52.623Z,78.20
2017-09-28T00:48:18.794Z,78.30
2017-09-28T00:50:45.341Z,78.30
2017-09-28T00:53:12.238Z,78.90
2017-09-28T00:55:38.478Z,78.20
2017-09-28T00:58:04.646Z,78.40
2017-09-28T01:00:30.851Z,78.20
2017-09-28T01:02:57.045Z,78.20
2017-09-28T01:05:23.214Z,78.20
2017-09-28T01:07:49.382Z,78.30
2017-09-28T01:10:15.587Z,78.50
2017-09-28T01:12:42.526Z,78.80
2017-09-28T01:15:08.704Z,78.20
2017-09-28T01:17:34.933Z,78.50
2017-09-28T01:20:01.155Z,79.10
2017-09-28T01:22:27.424Z,79.50
2017-09-28T01:24:53.640Z,79.00
2017-09-28T01:27:19.887Z,78.60
2017-09-28T01:29:46.997Z,78.80
2017-09-28T01:32:14.539Z,78.70
2017-09-28T01:34:40.793Z,78.70
2017-09-28T01:37:06.962Z,78.80
2017-09-28T01:39:34.102Z,80.20
2017-09-28T01:42:00.326Z,79.50
2017-09-28T01:44:27.321Z,80.00
2017-09-28T01:46:53.526Z,79.50
2017-09-28T01:49:20.473Z,79.50
2017-09-28T01:51:47.098Z,78.60
2017-09-28T01:54:14.663Z,78.60
2017-09-28T01:56:41.607Z,79.90
2017-09-28T01:59:08.544Z,79.90
2017-09-28T02:01:34.743Z,79.30
2017-09-28T02:04:00.956Z,79.20
2017-09-28T02:06:27.194Z,78.90
2017-09-28T02:08:53.405Z,79.00
2017-09-28T02:11:19.611Z,79.30
2017-09-28T02:13:46.564Z,79.90
2017-09-28T02:16:14.266Z,79.10
2017-09-28T02:18:40.439Z,79.10
2017-09-28T02:21:07.373Z,80.50
2017-09-28T02:23:33.599Z,78.80
2017-09-28T02:25:59.802Z,78.90
2017-09-28T02:28:26.018Z,79.50
2017-09-28T02:30:52.216Z,79.50
2017-09-28T02:33:19.948Z,79.50
2017-09-28T02:35:46.878Z,80.40
2017-09-28T02:38:13.047Z,79.80
2017-09-28T02:40:39.986Z,79.80
2017-09-28T02:43:06.947Z,79.60
2017-09-28T02:45:33.859Z,79.60
2017-09-28T02:48:00.812Z,80.30
2017-09-28T02:50:27.714Z,80.90
2017-09-28T02:52:54.305Z,80.80
2017-09-28T02:55:21.267Z,81.70
2017-09-28T02:57:48.210Z,80.80
2017-09-28T03:00:14.425Z,80.80
2017-09-28T03:02:41.365Z,81.10
2017-09-28T03:05:07.534Z,80.70
2017-09-28T03:07:34.014Z,80.60
2017-09-28T03:10:01.674Z,81.40
2017-09-28T03:12:27.862Z,77.60
2017-09-28T03:14:54.031Z,81.00
2017-09-28T03:17:20.190Z,80.50
2017-09-28T03:19:47.156Z,81.30
2017-09-28T03:22:13.369Z,81.00
2017-09-28T03:24:39.558Z,81.20
2017-09-28T03:27:05.726Z,81.30
2017-09-28T03:29:32.656Z,81.80
2017-09-28T03:34:26.746Z,81.60
2017-09-28T03:36:53.688Z,82.40
2017-09-28T03:39:20.663Z,82.60
2017-09-28T03:41:46.943Z,81.80
2017-09-28T03:44:13.105Z,81.70
2017-09-28T03:46:40.033Z,82.20
2017-09-28T03:49:07.683Z,82.20
2017-09-28T03:51:33.855Z,81.70
2017-09-28T03:54:00.782Z,82.20
2017-09-28T03:56:27.664Z,83.00
2017-09-28T03:58:53.845Z,82.20
2017-09-28T04:01:20.649Z,82.30
2017-09-28T04:03:46.853Z,81.80
2017-09-28T04:06:13.020Z,82.30
2017-09-28T04:08:39.216Z,81.70
2017-09-28T04:11:05.426Z,82.20
2017-09-28T04:13:32.364Z,82.50
2017-09-28T04:16:00.081Z,82.60
2017-09-28T04:18:26.263Z,82.30
2017-09-28T04:20:53.193Z,83.00
2017-09-28T04:23:20.127Z,83.00
2017-09-28T04:25:46.377Z,82.80
2017-09-28T04:28:13.296Z,83.40
2017-09-28T04:30:39.468Z,83.00
2017-09-28T04:33:05.661Z,82.80
2017-09-28T04:35:32.620Z,83.10
2017-09-28T04:37:59.550Z,83.20
2017-09-28T04:40:25.742Z,82.80
2017-09-28T04:42:51.940Z,82.80
2017-09-28T04:45:18.150Z,83.00
2017-09-28T04:47:45.102Z,83.50
2017-09-28T04:50:11.653Z,82.10
2017-09-28T04:52:37.847Z,81.70
2017-09-28T04:55:04.053Z,81.80
2017-09-28T04:57:30.270Z,81.70
2017-09-28T04:59:56.476Z,81.90
2017-09-28T05:02:22.664Z,81.80
2017-09-28T05:04:49.602Z,82.20
2017-09-28T05:09:43.760Z,81.40
2017-09-28T05:12:09.982Z,81.70
2017-09-28T05:14:37.588Z,82.10
2017-09-28T05:17:04.507Z,82.30
2017-09-28T05:19:31.080Z,82.00
2017-09-28T05:21:57.279Z,82.30
2017-09-28T05:24:23.445Z,82.00
2017-09-28T05:26:49.643Z,81.90
2017-09-28T05:29:16.580Z,82.10
2017-09-28T05:31:42.734Z,81.70
2017-09-28T05:34:08.981Z,81.80
2017-09-28T05:36:36.044Z,82.50
2017-09-28T05:39:04.457Z,82.40
2017-09-28T05:41:30.672Z,82.30
2017-09-28T05:43:56.876Z,82.40
2017-09-28T05:46:23.802Z,82.60
2017-09-28T05:48:49.974Z,81.80
2017-09-28T05:51:16.184Z,82.50
2017-09-28T05:53:42.396Z,81.80
2017-09-28T05:56:09.393Z,82.00
2017-09-28T05:58:35.614Z,82.00
2017-09-28T06:01:02.413Z,81.80
2017-09-28T06:03:29.419Z,81.80
2017-09-28T06:05:55.554Z,81.80
2017-09-28T06:08:21.797Z,81.50
2017-09-28T06:10:47.958Z,81.40
2017-09-28T06:13:14.885Z,81.60
2017-09-28T06:15:41.826Z,81.90
2017-09-28T06:18:08.015Z,81.80
2017-09-28T06:20:34.228Z,82.80
2017-09-28T06:23:00.411Z,82.50
2017-09-28T06:25:26.563Z,82.00
2017-09-28T06:27:53.118Z,82.00
2017-09-28T06:30:19.294Z,82.10
2017-09-28T06:32:45.487Z,81.40
2017-09-28T06:35:11.690Z,81.90
2017-09-28T06:37:38.821Z,81.50
2017-09-28T06:40:05.743Z,81.00
2017-09-28T06:42:33.450Z,80.60
2017-09-28T06:44:59.619Z,79.70
2017-09-28T06:47:25.806Z,79.50
2017-09-28T06:49:54.657Z,80.80
2017-09-28T06:52:21.566Z,78.90
2017-09-28T06:54:49.475Z,78.60
2017-09-28T06:57:15.835Z,78.50
2017-09-28T06:59:42.067Z,78.10
2017-09-28T07:02:08.252Z,78.30
2017-09-28T07:04:34.478Z,78.70
2017-09-28T07:07:00.722Z,78.60
2017-09-28T07:09:26.938Z,78.90
2017-09-28T07:11:53.088Z,78.80
2017-09-28T07:14:20.042Z,79.60
2017-09-28T07:16:46.985Z,79.80
2017-09-28T07:19:13.899Z,80.00
2017-09-28T07:21:40.107Z,79.80
2017-09-28T07:24:06.318Z,80.20
2017-09-28T07:26:32.493Z,79.70
2017-09-28T07:28:58.669Z,79.40
2017-09-28T07:31:25.651Z,79.50
2017-09-28T07:33:51.847Z,78.90
2017-09-28T07:36:18.824Z,79.50
2017-09-28T07:38:45.042Z,78.40
2017-09-28T07:41:11.231Z,78.50
2017-09-28T07:43:38.173Z,75.30
2017-09-28T07:46:05.115Z,73.30
2017-09-28T07:48:32.374Z,71.40
2017-09-28T07:50:59.304Z,70.50
2017-09-28T07:53:26.233Z,69.20
2017-09-28T07:55:52.403Z,69.50
2017-09-28T07:58:18.585Z,70.00
2017-09-28T08:00:45.132Z,70.70
2017-09-28T08:03:11.321Z,71.50
2017-09-28T08:05:37.512Z,71.60
2017-09-28T08:08:04.452Z,72.90
2017-09-28T08:10:31.422Z,73.10
2017-09-28T08:12:57.628Z,73.30
2017-09-28T08:15:24.567Z,74.50
2017-09-28T08:17:51.513Z,75.60
2017-09-28T08:20:18.447Z,75.40
2017-09-28T08:22:44.656Z,75.10
2017-09-28T08:25:10.874Z,75.30
2017-09-28T08:27:37.472Z,75.00
2017-09-28T08:32:32.350Z,74.90
2017-09-28T08:34:58.556Z,74.80
2017-09-28T08:37:25.087Z,74.50
2017-09-28T08:39:51.244Z,75.00
2017-09-28T08:42:17.451Z,74.90
2017-09-28T08:44:43.670Z,73.60
2017-09-28T08:47:09.873Z,73.70
2017-09-28T08:49:36.054Z,73.80
2017-09-28T08:52:02.247Z,73.80
2017-09-28T08:54:28.443Z,73.60
2017-09-28T08:56:55.375Z,74.20
2017-09-28T08:59:22.313Z,74.30
2017-09-28T09:01:48.482Z,74.10
2017-09-28T09:04:15.274Z,73.60
2017-09-28T09:06:41.464Z,73.40
2017-09-28T09:09:07.655Z,72.50
2017-09-28T09:11:34.557Z,73.10
2017-09-28T09:14:00.751Z,73.00
2017-09-28T09:16:26.891Z,73.20
2017-09-28T09:18:53.095Z,73.10
2017-09-28T09:21:20.019Z,71.60
2017-09-28T09:23:46.943Z,72.10
2017-09-28T09:26:13.116Z,71.70
2017-09-28T09:28:39.337Z,70.40
2017-09-28T09:31:05.495Z,70.60
2017-09-28T09:33:31.688Z,70.80
2017-09-28T09:35:58.622Z,70.50
2017-09-28T09:38:25.552Z,69.50
2017-09-28T09:40:51.754Z,69.90
2017-09-28T09:43:17.992Z,68.20
2017-09-28T09:45:44.238Z,67.00
2017-09-28T09:48:10.416Z,66.50
2017-09-28T09:50:36.629Z,66.30
2017-09-28T09:53:02.824Z,66.10
2017-09-28T09:55:29.010Z,67.00
2017-09-28T09:57:55.198Z,67.10
2017-09-28T10:00:22.116Z,66.00
2017-09-28T10:02:48.342Z,65.40
2017-09-28T10:05:14.551Z,64.10
2017-09-28T10:07:51.147Z,61.60
2017-09-28T10:10:21.161Z,62.10
2017-09-28T10:12:57.929Z,62.90
2017-09-28T10:15:28.458Z,62.10
2017-09-28T10:17:54.716Z,62.80
2017-09-28T10:20:20.944Z,63.10
2017-09-28T10:22:47.147Z,63.30
2017-09-28T10:25:13.335Z,62.90
2017-09-28T10:27:39.495Z,62.80
2017-09-28T10:30:05.744Z,62.60
2017-09-28T10:32:31.902Z,62.90
2017-09-28T10:34:58.855Z,63.40
2017-09-28T10:37:25.787Z,63.30
2017-09-28T10:39:52.701Z,63.60
2017-09-28T10:42:18.864Z,62.90
2017-09-28T10:44:46.551Z,63.50
2017-09-28T10:47:12.703Z,62.50
2017-09-28T10:49:38.886Z,62.30
2017-09-28T10:52:05.779Z,60.00
2017-09-28T10:54:31.954Z,60.00
2017-09-28T10:56:58.945Z,59.60
2017-09-28T10:59:25.136Z,59.60
2017-09-28T11:01:52.043Z,59.90
2017-09-28T11:04:18.227Z,59.10
2017-09-28T11:06:44.397Z,59.30
2017-09-28T11:09:10.618Z,58.00
2017-09-28T11:11:36.847Z,57.60
2017-09-28T11:14:03.044Z,58.30
2017-09-28T11:16:29.236Z,58.50
2017-09-28T11:18:55.451Z,58.60
2017-09-28T11:21:21.661Z,58.00
2017-09-28T11:23:47.880Z,57.70
2017-09-28T11:26:14.076Z,55.10
2017-09-28T11:28:40.235Z,53.70
2017-09-28T11:31:06.416Z,50.90
2017-09-28T11:33:33.323Z,52.50
2017-09-28T11:35:59.507Z,52.40
2017-09-28T11:38:25.674Z,53.30
2017-09-28T11:40:51.843Z,54.90
2017-09-28T11:43:18.788Z,58.70
2017-09-28T11:45:45.693Z,59.70
2017-09-28T11:48:12.187Z,59.50
2017-09-28T11:50:38.363Z,59.80
2017-09-28T11:53:04.558Z,59.70
2017-09-28T11:55:30.754Z,59.90
2017-09-28T11:57:57.697Z,60.20
2017-09-28T12:00:24.615Z,59.80
2017-09-28T12:02:50.810Z,58.70
2017-09-28T12:05:17.007Z,57.60
2017-09-28T12:07:44.398Z,58.50
2017-09-28T12:10:11.406Z,57.50
2017-09-28T12:12:37.618Z,58.10
2017-09-28T12:15:04.576Z,59.30
2017-09-28T12:17:31.556Z,59.90
2017-09-28T12:19:57.719Z,59.80
2017-09-28T12:22:23.906Z,55.90
2017-09-28T12:24:50.097Z,56.50
2017-09-28T12:27:17.023Z,53.30
2017-09-28T12:29:43.246Z,50.20
2017-09-28T12:32:09.487Z,49.90
2017-09-28T12:34:35.674Z,49.30
2017-09-28T12:37:01.876Z,47.10
2017-09-28T12:39:28.821Z,46.60
2017-09-28T12:41:56.546Z,48.20
2017-09-28T12:44:22.714Z,48.20
2017-09-28T12:46:49.604Z,50.10
2017-09-28T12:49:15.788Z,50.20
2017-09-28T12:51:41.949Z,50.40
2017-09-28T12:54:08.180Z,50.90
2017-09-28T12:56:34.363Z,50.10
2017-09-28T12:59:01.319Z,51.40
2017-09-28T13:01:28.231Z,50.90
2017-09-28T13:03:54.420Z,50.10
2017-09-28T13:06:20.635Z,50.60
2017-09-28T13:08:46.809Z,50.70
2017-09-28T13:11:13.040Z,51.30
2017-09-28T13:13:39.226Z,52.80
2017-09-28T13:16:05.375Z,53.90
2017-09-28T13:18:31.542Z,55.70
2017-09-28T13:20:57.733Z,57.00
2017-09-28T13:23:23.948Z,57.40
2017-09-28T13:25:50.123Z,58.30
2017-09-28T13:28:16.320Z,58.60
2017-09-28T13:30:42.538Z,58.70
2017-09-28T13:33:08.756Z,59.20
2017-09-28T13:35:34.950Z,59.90
2017-09-28T13:51:06.139Z,59.60
2017-09-28T13:53:32.328Z,60.00
2017-09-28T13:55:59.327Z,61.20
2017-09-28T13:58:25.586Z,61.50
2017-09-28T14:00:52.599Z,62.10
2017-09-28T14:03:18.795Z,61.30
2017-09-28T14:05:44.984Z,61.60
2017-09-28T14:08:11.288Z,62.30
2017-09-28T14:10:37.478Z,61.30
2017-09-28T14:13:03.660Z,62.00
2017-09-28T14:15:29.858Z,61.80
2017-09-28T14:17:56.051Z,62.50
2017-09-28T14:20:22.987Z,62.50
2017-09-28T14:22:49.921Z,62.50
2017-09-28T14:25:16.159Z,61.40
2017-09-28T14:27:43.050Z,61.90
2017-09-28T14:30:09.211Z,59.70
2017-09-28T14:32:35.407Z,59.70
2017-09-28T14:35:01.601Z,60.30
2017-09-28T14:37:28.543Z,58.80
2017-09-28T14:39:55.469Z,58.60
2017-09-28T14:42:21.639Z,58.60
2017-09-28T14:44:47.863Z,58.90
2017-09-28T14:47:14.039Z,59.30
2017-09-28T14:49:40.227Z,59.90
2017-09-28T14:52:06.448Z,60.60
2017-09-28T14:54:32.609Z,61.00
2017-09-28T14:56:58.779Z,61.60
2017-09-28T14:59:25.707Z,62.10
2017-09-28T15:01:53.362Z,62.10
2017-09-28T15:04:19.538Z,62.00
2017-09-28T15:06:45.787Z,61.50
2017-09-28T15:09:11.993Z,62.10
2017-09-28T15:11:38.173Z,62.00
2017-09-28T15:14:04.391Z,62.60
2017-09-28T15:16:30.566Z,62.10
2017-09-28T15:18:57.484Z,62.80
2017-09-28T15:21:24.479Z,62.20
2017-09-28T15:23:50.634Z,63.00
2017-09-28T15:26:16.855Z,63.30
2017-09-28T15:28:43.034Z,63.60
2017-09-28T15:31:09.946Z,63.90
2017-09-28T15:33:36.157Z,63.80
2017-09-28T15:36:02.330Z,63.80
2017-09-28T15:38:29.259Z,63.80
2017-09-28T15:40:55.523Z,63.80
2017-09-28T15:43:22.467Z,63.80
2017-09-28T15:45:49.427Z,63.80
2017-09-28T15:48:15.631Z,63.80
2017-09-28T15:50:42.562Z,63.70
2017-09-28T15:53:08.812Z,63.20
2017-09-28T15:55:35.751Z,64.00
2017-09-28T15:58:02.706Z,64.60
2017-09-28T16:00:28.913Z,64.40
2017-09-28T16:02:58.051Z,64.90
2017-09-28T16:05:24.279Z,64.90
2017-09-28T16:07:50.426Z,65.00
2017-09-28T16:10:16.656Z,65.40
2017-09-28T16:15:36.070Z,64.50
2017-09-28T16:18:02.286Z,65.40
2017-09-28T16:20:28.503Z,65.40
2017-09-28T16:22:54.680Z,65.50
2017-09-28T16:25:21.647Z,66.00
2017-09-28T16:27:47.849Z,66.00
2017-09-28T16:30:15.901Z,67.20
2017-09-28T16:32:42.107Z,66.70
2017-09-28T16:35:08.347Z,66.80
2017-09-28T16:37:34.531Z,67.20
2017-09-28T16:40:00.739Z,67.10
2017-09-28T16:42:30.032Z,67.20
2017-09-28T16:44:56.243Z,66.50
2017-09-28T16:47:22.478Z,67.20
2017-09-28T16:49:48.654Z,66.50
2017-09-28T16:52:15.239Z,67.10
2017-09-28T16:54:41.536Z,67.50
2017-09-28T16:57:07.709Z,67.10
2017-09-28T16:59:33.946Z,67.30
2017-09-28T17:02:00.902Z,67.90
2017-09-28T17:04:28.280Z,67.70
2017-09-28T17:06:54.478Z,68.30
2017-09-28T17:09:22.166Z,68.50
2017-09-28T17:11:48.326Z,68.40
2017-09-28T17:14:14.916Z,68.70
2017-09-28T17:16:43.066Z,69.10
2017-09-28T17:19:09.238Z,69.50
2017-09-28T17:21:35.430Z,69.30
2017-09-28T17:24:01.983Z,70.00
2017-09-28T17:26:28.951Z,70.00
2017-09-28T17:28:55.207Z,70.30
2017-09-28T17:31:21.871Z,70.80
2017-09-28T17:33:48.131Z,70.60
2017-09-28T17:36:16.662Z,70.50
2017-09-28T17:38:49.071Z,70.40
2017-09-28T17:41:15.248Z,70.50
2017-09-28T17:43:41.831Z,72.00
2017-09-28T17:46:08.378Z,71.90
2017-09-28T17:48:35.321Z,72.60
2017-09-28T17:51:02.367Z,72.30
2017-09-28T17:53:29.344Z,72.90
2017-09-28T17:55:55.736Z,72.90
2017-09-28T17:58:21.928Z,73.10
2017-09-28T18:00:48.225Z,73.60
2017-09-28T18:03:14.439Z,73.90
2017-09-28T18:05:41.374Z,73.70
2017-09-28T18:08:07.767Z,73.20
2017-09-28T18:10:33.952Z,73.50
2017-09-28T18:13:00.154Z,73.50
2017-09-28T18:15:26.355Z,73.60
2017-09-28T18:17:53.733Z,74.00
2017-09-28T18:20:20.981Z,74.00
2017-09-28T18:22:49.945Z,74.50
2017-09-28T18:25:16.196Z,73.30
2017-09-28T18:27:44.234Z,74.50
2017-09-28T18:30:10.785Z,74.70
2017-09-28T18:32:37.090Z,74.00
2017-09-28T18:35:04.039Z,76.00
2017-09-28T18:37:31.254Z,76.00
2017-09-28T18:39:57.444Z,75.40
2017-09-28T18:42:23.688Z,74.20
2017-09-28T18:44:49.920Z,74.10
2017-09-28T18:47:16.094Z,74.20
2017-09-28T18:49:42.360Z,74.20
2017-09-28T18:52:08.560Z,73.70
2017-09-28T18:54:35.823Z,74.60
2017-09-28T18:57:02.073Z,74.10
2017-09-28T18:59:28.339Z,73.10
2017-09-28T19:01:54.571Z,73.00
2017-09-28T19:04:21.567Z,73.10
2017-09-28T19:06:48.153Z,73.10
2017-09-28T19:09:14.408Z,73.40
2017-09-28T19:11:41.750Z,73.40
2017-09-28T19:14:08.722Z,74.40
2017-09-28T19:16:35.044Z,73.80
2017-09-28T19:19:01.310Z,73.70
2017-09-28T19:21:27.522Z,73.60
2017-09-28T19:23:54.031Z,74.20
2017-09-28T19:26:20.985Z,75.30
2017-09-28T19:28:47.953Z,74.20
2017-09-28T19:31:14.207Z,74.10
2017-09-28T19:33:40.447Z,73.90
2017-09-28T19:36:06.635Z,74.30
2017-09-28T19:38:32.837Z,75.70
2017-09-28T19:40:59.783Z,75.50
2017-09-28T19:43:26.307Z,75.30
2017-09-28T19:45:52.569Z,75.80
2017-09-28T19:48:18.743Z,76.10
2017-09-28T19:50:46.468Z,76.40
2017-09-28T19:53:12.674Z,75.50
2017-09-28T19:55:39.601Z,76.20
2017-09-28T19:58:06.957Z,75.50
2017-09-28T20:00:43.195Z,75.70
2017-09-28T20:03:11.263Z,75.40
2017-09-28T20:05:37.496Z,75.30
2017-09-28T20:08:03.661Z,75.40
2017-09-28T20:10:30.547Z,75.80
2017-09-28T20:12:56.738Z,75.40
2017-09-28T20:15:23.304Z,75.50
2017-09-28T20:17:49.904Z,75.30
2017-09-28T20:20:16.124Z,75.60
2017-09-28T20:22:42.379Z,76.20
2017-09-28T20:37:03.321Z,76.60
2017-09-28T20:39:29.636Z,76.30
2017-09-28T20:41:56.130Z,76.80
2017-09-28T20:44:22.391Z,76.80
2017-09-28T20:46:48.643Z,76.30
2017-09-28T20:49:14.827Z,76.80
2017-09-28T20:51:41.854Z,76.90
2017-09-28T20:54:08.090Z,77.50
2017-09-28T20:56:34.298Z,76.50
2017-09-28T20:59:00.545Z,77.00
2017-09-28T21:01:26.766Z,76.80
2017-09-28T21:03:52.984Z,76.80
2017-09-28T21:06:19.191Z,77.40
2017-09-28T21:08:45.448Z,77.20
2017-09-28T21:11:11.634Z,77.10
2017-09-28T21:13:38.932Z,78.00
2017-09-28T21:16:05.636Z,76.80
2017-09-28T21:18:31.824Z,77.00
2017-09-28T21:20:58.009Z,77.40
2017-09-28T21:23:24.219Z,78.10
2017-09-28T21:25:50.427Z,76.80
2017-09-28T21:28:17.600Z,77.40
2017-09-28T21:30:43.815Z,76.80
2017-09-28T21:33:10.421Z,76.80
2017-09-28T21:35:36.659Z,76.80
2017-09-28T21:38:03.620Z,77.40
2017-09-28T21:40:30.565Z,77.30
2017-09-28T21:42:56.747Z,76.90
2017-09-28T21:45:23.044Z,77.30
2017-09-28T21:47:49.215Z,77.20
2017-09-28T21:50:16.877Z,78.10
2017-09-28T21:52:43.067Z,77.30
2017-09-28T21:55:09.278Z,78.00
2017-09-28T21:57:36.176Z,78.10
2017-09-28T22:00:02.444Z,78.10
2017-09-28T22:02:30.280Z,78.40
2017-09-28T22:04:56.570Z,78.50
2017-09-28T22:07:22.788Z,78.30
2017-09-28T22:09:48.947Z,79.20
2017-09-28T22:12:15.180Z,79.10
2017-09-28T22:14:44.642Z,79.00
2017-09-28T22:17:11.676Z,79.40
2017-09-28T22:19:39.539Z,79.00
2017-09-28T22:22:06.470Z,79.00
2017-09-28T22:24:32.665Z,79.00
2017-09-28T22:26:58.848Z,79.20
2017-09-28T22:29:25.799Z,79.10
2017-09-28T22:31:52.688Z,79.10
2017-09-28T22:34:18.903Z,79.00
2017-09-28T22:36:45.313Z,79.00
2017-09-28T22:39:11.516Z,79.10
2017-09-28T22:41:38.449Z,78.80
2017-09-28T22:44:04.624Z,78.80
2017-09-28T22:46:30.841Z,78.60
2017-09-28T22:48:57.049Z,78.60
2017-09-28T22:51:23.964Z,79.00
2017-09-28T22:53:50.162Z,79.00
2017-09-28T22:56:16.378Z,78.80
2017-09-28T22:58:42.516Z,79.10
2017-09-28T23:01:09.204Z,79.30
2017-09-28T23:03:35.461Z,79.10
2017-09-28T23:06:02.407Z,80.00
2017-09-28T23:08:29.368Z,79.60
2017-09-28T23:10:55.554Z,79.60
2017-09-28T23:13:21.749Z,80.10
2017-09-28T23:15:47.942Z,80.20
2017-09-28T23:18:14.850Z,80.70
2017-09-28T23:20:41.042Z,80.70
2017-09-28T23:23:07.213Z,80.10
2017-09-28T23:25:33.430Z,79.30
2017-09-28T23:27:59.590Z,79.20
2017-09-28T23:30:26.495Z,80.10
2017-09-28T23:32:52.719Z,80.10
2017-09-28T23:35:18.903Z,79.60
2017-09-28T23:39:30.650Z,80.10
2017-09-28T23:41:56.867Z,80.10
2017-09-28T23:44:23.752Z,79.70
2017-09-28T23:46:50.084Z,79.70
2017-09-28T23:49:17.199Z,80.20
2017-09-28T23:51:43.397Z,80.20
2017-09-28T23:54:10.110Z,80.50
2017-09-28T23:56:37.126Z,80.60
2017-09-28T23:59:03.303Z,80.60
